Time;durP1;ratioP1;P1;durP2;ratioP2;P2;SDS_P1;SDS_P2;PMS_P1;PMS_P2;Temp;Humidity;BMP_temperature;BMP_pressure;BME280_temperature;BME280_humidity;BME280_pressure;Samples;Min_cycle;Max_cycle;Signal;HPM_P1;HPM_P2
2021/06/15 00:00:15;;;;;;;7.87;3.87;;;21.90;62.20;;;;;;5092167;28;20058;-73
2021/06/15 00:02:59;;;;;;;6.63;3.85;;;21.90;62.40;;;;;;5083503;28;20293;-71
2021/06/15 00:05:43;;;;;;;6.05;3.50;;;21.90;62.50;;;;;;5079681;28;20125;-72
2021/06/15 00:08:27;;;;;;;6.43;3.60;;;21.90;62.50;;;;;;5088994;28;20039;-72
2021/06/15 00:11:11;;;;;;;6.97;3.42;;;21.90;62.60;;;;;;5072724;28;20032;-72
2021/06/15 00:13:55;;;;;;;5.55;3.47;;;21.80;63.30;;;;;;5070917;28;20121;-73
2021/06/15 00:16:40;;;;;;;7.70;3.78;;;21.80;62.90;;;;;;5054126;28;20443;-72
2021/06/15 00:19:23;;;;;;;5.30;3.60;;;21.80;63.00;;;;;;5058861;28;20039;-73
2021/06/15 00:22:07;;;;;;;6.70;3.83;;;21.80;63.20;;;;;;5097725;28;20043;-72
2021/06/15 00:24:51;;;;;;;7.65;3.80;;;21.70;63.30;;;;;;5087776;28;20083;-71
2021/06/15 00:27:36;;;;;;;8.15;3.67;;;21.70;63.40;;;;;;5075316;28;20085;-72
2021/06/15 00:30:21;;;;;;;7.23;4.00;;;21.70;63.50;;;;;;5080389;28;20059;-72
2021/06/15 00:33:06;;;;;;;10.00;4.78;;;21.60;63.70;;;;;;5079318;28;20023;-72
2021/06/15 00:35:50;;;;;;;7.20;3.70;;;21.60;64.00;;;;;;5087119;28;20114;-73
2021/06/15 00:38:35;;;;;;;8.20;4.03;;;21.60;64.20;;;;;;5081932;28;20177;-73
2021/06/15 00:41:19;;;;;;;5.40;3.47;;;21.60;64.40;;;;;;5072349;28;20106;-74
2021/06/15 00:44:03;;;;;;;5.13;3.70;;;21.60;64.50;;;;;;5070444;28;20047;-73
2021/06/15 00:46:47;;;;;;;6.72;4.00;;;21.60;64.70;;;;;;5092106;28;20085;-73
2021/06/15 00:49:34;;;;;;;6.43;3.78;;;21.50;64.90;;;;;;5070326;28;20036;-73
2021/06/15 00:52:18;;;;;;;5.68;3.85;;;21.50;65.00;;;;;;5072919;28;20102;-73
2021/06/15 00:55:03;;;;;;;8.80;3.70;;;21.50;65.20;;;;;;5079261;28;20107;-73
2021/06/15 00:57:47;;;;;;;6.05;3.53;;;21.50;65.40;;;;;;5090684;28;20042;-73
2021/06/15 01:00:31;;;;;;;7.38;4.38;;;21.40;65.40;;;;;;5089001;28;20034;-73
2021/06/15 01:03:16;;;;;;;9.63;4.67;;;21.40;65.50;;;;;;5091450;28;20048;-73
2021/06/15 01:06:07;;;;;;;7.30;3.47;;;21.40;65.90;;;;;;5072857;28;20051;-73
2021/06/15 01:08:59;;;;;;;6.32;3.78;;;21.40;66.10;;;;;;5052313;28;20048;-73
2021/06/15 01:12:12;;;;;;;6.25;4.03;;;21.30;66.10;;;;;;5052337;28;20075;-74
2021/06/15 01:15:06;;;;;;;7.00;4.13;;;21.30;66.10;;;;;;5060260;28;20039;-71
2021/06/15 01:18:10;;;;;;;6.32;3.55;;;21.20;66.30;;;;;;5072197;28;20032;-72
2021/06/15 01:21:04;;;;;;;5.38;3.67;;;21.20;66.30;;;;;;5086382;28;20076;-73
2021/06/15 01:23:48;;;;;;;7.78;3.72;;;21.20;66.70;;;;;;5091790;28;20466;-71
2021/06/15 01:26:44;;;;;;;6.97;4.13;;;21.20;66.80;;;;;;5051959;28;20508;-74
2021/06/15 01:29:35;;;;;;;6.70;4.30;;;21.20;67.00;;;;;;5055139;28;20491;-72
2021/06/15 01:32:26;;;;;;;5.32;3.70;;;21.10;67.20;;;;;;5071850;28;20158;-71
2021/06/15 01:35:12;;;;;;;7.28;4.05;;;21.10;67.40;;;;;;5079290;28;20038;-73
2021/06/15 01:38:09;;;;;;;11.02;4.63;;;21.10;67.50;;;;;;5091917;28;20081;-73
2021/06/15 01:41:09;;;;;;;7.60;3.70;;;21.10;67.60;;;;;;5073549;28;20031;-73
2021/06/15 01:44:00;;;;;;;6.53;4.28;;;21.00;67.70;;;;;;5071857;28;20035;-74
2021/06/15 01:46:57;;;;;;;6.10;3.75;;;21.10;68.00;;;;;;5067537;28;20072;-74
2021/06/15 01:50:04;;;;;;;6.53;4.00;;;21.00;68.40;;;;;;5068740;28;20095;-74
2021/06/15 01:52:50;;;;;;;7.47;4.03;;;21.00;68.20;;;;;;5071211;28;20458;-74
2021/06/15 01:55:36;;;;;;;7.07;4.40;;;21.00;68.50;;;;;;5091751;28;20081;-74
2021/06/15 01:58:23;;;;;;;5.95;4.03;;;21.00;68.60;;;;;;5082474;28;20538;-74
2021/06/15 02:01:08;;;;;;;7.00;4.10;;;20.90;68.60;;;;;;5071463;28;20085;-74
2021/06/15 02:03:53;;;;;;;7.10;4.15;;;21.00;68.80;;;;;;5080666;28;20411;-74
2021/06/15 02:06:41;;;;;;;7.63;4.40;;;20.90;68.90;;;;;;5089887;28;20048;-71
2021/06/15 02:09:28;;;;;;;8.00;4.15;;;20.90;69.20;;;;;;5070461;28;20106;-70
2021/06/15 02:12:14;;;;;;;7.45;4.22;;;20.90;69.20;;;;;;5070024;28;20043;-73
2021/06/15 02:14:59;;;;;;;7.45;4.18;;;20.90;69.30;;;;;;5071829;28;20131;-74
2021/06/15 02:17:45;;;;;;;6.22;4.50;;;20.90;69.40;;;;;;5053118;28;20032;-74
2021/06/15 02:20:34;;;;;;;8.02;4.45;;;20.80;69.70;;;;;;5092657;28;20081;-73
2021/06/15 02:23:21;;;;;;;8.05;4.75;;;20.80;69.80;;;;;;5083401;28;20473;-74
2021/06/15 02:26:09;;;;;;;7.15;4.50;;;20.80;69.90;;;;;;5069898;28;20063;-74
2021/06/15 02:28:53;;;;;;;8.07;4.38;;;20.70;70.00;;;;;;5080668;28;20109;-74
2021/06/15 02:31:44;;;;;;;6.57;4.37;;;20.70;70.20;;;;;;5091416;28;20093;-75
2021/06/15 02:34:29;;;;;;;8.35;4.38;;;20.70;70.40;;;;;;5072783;28;20286;-74
2021/06/15 02:37:27;;;;;;;8.18;4.55;;;20.70;70.60;;;;;;5071110;28;20384;-74
2021/06/15 02:40:13;;;;;;;7.70;4.07;;;20.60;70.70;;;;;;5086527;28;20052;-74
2021/06/15 02:42:59;;;;;;;6.63;4.57;;;20.60;70.90;;;;;;5087978;28;20083;-74
2021/06/15 02:45:44;;;;;;;5.75;4.10;;;20.60;71.10;;;;;;5091434;28;20090;-74
2021/06/15 02:48:33;;;;;;;5.97;4.50;;;20.60;71.30;;;;;;5083893;28;20086;-74
2021/06/15 02:51:18;;;;;;;10.23;4.78;;;20.60;71.50;;;;;;5079046;28;20117;-74
2021/06/15 02:54:09;;;;;;;8.30;4.38;;;20.50;71.40;;;;;;5081119;28;20047;-74
2021/06/15 02:56:55;;;;;;;7.38;4.20;;;20.50;71.70;;;;;;5090406;28;20032;-74
2021/06/15 02:59:40;;;;;;;6.63;3.97;;;20.50;71.90;;;;;;5071112;28;20184;-74
2021/06/15 03:02:26;;;;;;;7.82;4.30;;;20.50;71.90;;;;;;5071345;28;20040;-74
2021/06/15 03:05:14;;;;;;;7.50;4.85;;;20.50;71.90;;;;;;5050627;28;20059;-74
2021/06/15 03:07:59;;;;;;;8.57;4.43;;;20.50;71.90;;;;;;5055276;28;20073;-74
2021/06/15 03:10:44;;;;;;;6.60;4.60;;;20.50;72.00;;;;;;5061587;28;20044;-73
2021/06/15 03:13:40;;;;;;;7.50;4.78;;;20.50;72.30;;;;;;5061920;28;20123;-74
2021/06/15 03:16:28;;;;;;;7.82;5.15;;;20.50;72.20;;;;;;5075048;28;20032;-74
2021/06/15 03:19:35;;;;;;;7.20;4.55;;;20.60;72.30;;;;;;5085966;28;20035;-75
2021/06/15 03:22:22;;;;;;;10.27;4.70;;;20.50;72.20;;;;;;5093602;28;20035;-74
2021/06/15 03:25:08;;;;;;;7.03;4.22;;;20.50;72.50;;;;;;5094409;28;20043;-73
2021/06/15 03:27:56;;;;;;;9.52;4.82;;;20.50;72.80;;;;;;5091821;28;20101;-72
2021/06/15 03:30:43;;;;;;;6.25;4.70;;;20.50;72.90;;;;;;5094778;28;20062;-73
2021/06/15 03:33:27;;;;;;;8.25;4.10;;;20.50;73.20;;;;;;5091030;28;20310;-73
2021/06/15 03:36:12;;;;;;;7.65;4.45;;;20.60;73.20;;;;;;5092988;28;20509;-73
2021/06/15 03:38:57;;;;;;;11.23;5.07;;;20.60;73.20;;;;;;5085163;28;20031;-72
2021/06/15 03:41:42;;;;;;;11.65;4.72;;;20.60;73.30;;;;;;5094600;28;20399;-75
2021/06/15 03:44:28;;;;;;;7.00;4.75;;;20.60;73.60;;;;;;5090379;28;20132;-73
2021/06/15 03:47:13;;;;;;;5.75;4.05;;;20.60;73.70;;;;;;5078323;28;20036;-71
2021/06/15 03:49:58;;;;;;;7.47;4.85;;;20.60;74.00;;;;;;5073851;28;20603;-73
2021/06/15 03:52:44;;;;;;;7.88;4.90;;;20.70;74.10;;;;;;5071380;28;20035;-73
2021/06/15 03:55:30;;;;;;;9.57;5.22;;;20.70;74.30;;;;;;5075820;28;20404;-74
2021/06/15 03:58:15;;;;;;;9.27;5.00;;;20.70;74.30;;;;;;5062687;28;20031;-73
2021/06/15 04:01:01;;;;;;;7.75;4.55;;;20.70;74.80;;;;;;5080679;28;20439;-74
2021/06/15 04:03:48;;;;;;;8.65;4.43;;;20.70;74.80;;;;;;5072258;28;20412;-73
2021/06/15 04:06:36;;;;;;;8.52;4.63;;;20.80;75.10;;;;;;5086812;28;20042;-73
2021/06/15 04:09:23;;;;;;;9.70;5.10;;;20.80;75.60;;;;;;5074179;28;20169;-73
2021/06/15 04:12:09;;;;;;;6.93;4.45;;;20.80;75.60;;;;;;5053357;28;20044;-73
2021/06/15 04:14:55;;;;;;;7.57;4.88;;;20.90;75.40;;;;;;5091024;28;20392;-73
2021/06/15 04:17:48;;;;;;;6.40;4.47;;;20.90;75.60;;;;;;5053962;28;20059;-73
2021/06/15 04:20:37;;;;;;;9.15;5.20;;;20.90;75.70;;;;;;5072941;28;20431;-73
2021/06/15 04:23:40;;;;;;;9.55;5.43;;;21.00;75.60;;;;;;5069395;28;20421;-73
2021/06/15 04:26:24;;;;;;;8.68;5.22;;;21.00;75.40;;;;;;5089624;28;20055;-74
2021/06/15 04:29:13;;;;;;;8.27;5.25;;;21.10;75.70;;;;;;5089307;28;20093;-74
2021/06/15 04:32:01;;;;;;;9.77;5.78;;;21.20;75.50;;;;;;5091338;28;20138;-74
2021/06/15 04:34:54;;;;;;;6.90;4.95;;;21.30;75.60;;;;;;5087641;28;20031;-74
2021/06/15 04:37:39;;;;;;;8.35;4.65;;;21.30;76.10;;;;;;5052304;28;20036;-74
2021/06/15 04:40:51;;;;;;;9.18;5.05;;;21.40;75.90;;;;;;5092838;28;20507;-74
2021/06/15 04:43:46;;;;;;;7.82;4.90;;;21.40;75.80;;;;;;5089980;28;20095;-74
2021/06/15 04:46:37;;;;;;;10.93;5.07;;;21.50;75.80;;;;;;5078267;28;20055;-74
2021/06/15 04:49:41;;;;;;;11.07;5.45;;;21.50;75.70;;;;;;5070832;28;20510;-74
2021/06/15 04:52:27;;;;;;;9.27;5.65;;;21.60;75.50;;;;;;5072570;28;20078;-75
2021/06/15 04:55:12;;;;;;;7.07;4.75;;;21.70;75.10;;;;;;5056279;28;20129;-75
2021/06/15 04:57:57;;;;;;;8.32;5.47;;;21.70;74.80;;;;;;5073433;28;20090;-75
2021/06/15 05:00:42;;;;;;;9.32;5.55;;;21.80;75.00;;;;;;5093125;28;20051;-75
2021/06/15 05:03:29;;;;;;;8.33;5.07;;;21.90;75.00;;;;;;5082731;28;20047;-74
2021/06/15 05:06:14;;;;;;;11.80;6.20;;;21.90;75.10;;;;;;5072174;28;20127;-72
2021/06/15 05:08:59;;;;;;;13.45;5.63;;;22.00;74.80;;;;;;5082012;28;20043;-73
2021/06/15 05:11:43;;;;;;;10.60;5.75;;;22.00;74.50;;;;;;5072164;28;20051;-72
2021/06/15 05:14:32;;;;;;;10.95;5.95;;;22.10;74.70;;;;;;5070396;28;20043;-72
2021/06/15 05:17:21;;;;;;;7.78;5.38;;;22.20;74.90;;;;;;5073243;28;20504;-72
2021/06/15 05:20:07;;;;;;;8.35;5.03;;;22.20;74.80;;;;;;5052281;28;20039;-72
2021/06/15 05:23:05;;;;;;;12.70;5.90;;;22.30;74.40;;;;;;5067882;28;20042;-73
2021/06/15 05:25:49;;;;;;;9.63;5.35;;;22.40;74.80;;;;;;5070911;28;20035;-74
2021/06/15 05:28:33;;;;;;;11.43;5.28;;;22.50;74.40;;;;;;5070954;28;20495;-74
2021/06/15 05:31:17;;;;;;;7.40;5.20;;;22.50;73.90;;;;;;5071508;28;20059;-74
2021/06/15 05:34:01;;;;;;;6.82;5.30;;;22.60;74.00;;;;;;5082024;28;20043;-75
2021/06/15 05:36:46;;;;;;;13.75;5.63;;;22.70;74.20;;;;;;5091919;28;20082;-74
2021/06/15 05:39:31;;;;;;;8.55;5.32;;;22.80;72.20;;;;;;5087059;28;20319;-75
2021/06/15 05:42:15;;;;;;;8.55;5.18;;;22.90;71.40;;;;;;5091912;28;20043;-75
2021/06/15 05:44:59;;;;;;;9.90;4.93;;;23.00;71.60;;;;;;5091038;28;20058;-75
2021/06/15 05:47:44;;;;;;;11.95;4.78;;;23.10;70.90;;;;;;5080863;28;20077;-75
2021/06/15 05:50:28;;;;;;;8.05;4.38;;;23.20;70.70;;;;;;5071754;28;20562;-74
2021/06/15 05:53:12;;;;;;;10.93;4.75;;;23.30;70.90;;;;;;5084495;28;20408;-75
2021/06/15 05:55:57;;;;;;;9.20;5.45;;;23.30;69.40;;;;;;5092804;28;20034;-72
2021/06/15 05:58:40;;;;;;;12.25;4.75;;;23.40;69.50;;;;;;5088606;28;20491;-71
2021/06/15 06:01:26;;;;;;;12.50;5.15;;;23.40;69.10;;;;;;5092361;28;20074;-73
2021/06/15 06:04:12;;;;;;;7.78;4.93;;;23.40;68.80;;;;;;5087943;28;20098;-72
2021/06/15 06:10:00;;;;;;;10.43;5.10;;;23.40;68.80;;;;;;5063720;28;20094;-74
2021/06/15 06:12:44;;;;;;;10.80;4.82;;;23.50;68.40;;;;;;5052432;28;20495;-72
2021/06/15 06:15:28;;;;;;;8.85;4.35;;;23.40;68.10;;;;;;5091824;28;20127;-73
2021/06/15 06:18:13;;;;;;;9.35;5.03;;;23.50;68.90;;;;;;5070431;28;20119;-74
2021/06/15 06:20:57;;;;;;;9.77;4.63;;;23.50;68.50;;;;;;5078819;28;20036;-74
2021/06/15 06:23:41;;;;;;;6.50;4.78;;;23.40;68.60;;;;;;5077661;28;20165;-74
2021/06/15 06:26:26;;;;;;;9.20;5.28;;;23.50;68.30;;;;;;5091659;28;20047;-69
2021/06/15 06:29:09;;;;;;;6.47;4.40;;;23.50;68.30;;;;;;5087802;28;20040;-71
2021/06/15 06:31:53;;;;;;;8.80;4.80;;;23.50;68.20;;;;;;5091769;28;20038;-69
2021/06/15 06:34:37;;;;;;;10.32;5.53;;;23.50;68.80;;;;;;5071747;28;20043;-73
2021/06/15 06:37:21;;;;;;;10.07;4.85;;;23.50;68.50;;;;;;5070870;28;20036;-73
2021/06/15 06:40:06;;;;;;;7.07;4.70;;;23.50;68.30;;;;;;5070112;28;20047;-73
2021/06/15 06:42:51;;;;;;;6.78;4.68;;;23.50;68.50;;;;;;5080252;28;20047;-73
2021/06/15 06:45:35;;;;;;;8.32;4.57;;;23.50;68.40;;;;;;5074971;28;20094;-74
2021/06/15 06:48:20;;;;;;;8.35;4.72;;;23.50;68.00;;;;;;5073396;28;20039;-76
2021/06/15 06:51:04;;;;;;;9.57;4.80;;;23.60;67.60;;;;;;5083632;28;20094;-74
2021/06/15 06:53:48;;;;;;;9.52;5.10;;;23.50;67.70;;;;;;5091613;28;20027;-74
2021/06/15 06:56:32;;;;;;;10.50;5.10;;;23.50;67.40;;;;;;5073682;28;20078;-73
2021/06/15 06:59:16;;;;;;;9.63;5.65;;;23.50;67.70;;;;;;5068822;28;20074;-74
2021/06/15 07:02:00;;;;;;;8.68;5.30;;;23.50;67.90;;;;;;5068450;28;20081;-74
2021/06/15 07:04:44;;;;;;;8.35;5.28;;;23.50;67.70;;;;;;5090878;28;20408;-73
2021/06/15 07:07:29;;;;;;;10.10;4.72;;;23.50;68.20;;;;;;5064322;28;20047;-73
2021/06/15 07:10:13;;;;;;;13.40;5.90;;;23.60;68.20;;;;;;5054222;28;20043;-80
2021/06/15 07:12:57;;;;;;;9.40;5.70;;;23.70;67.80;;;;;;5076672;28;20074;-80
2021/06/15 07:15:41;;;;;;;10.93;5.75;;;23.80;68.00;;;;;;5093850;28;20035;-80
2021/06/15 07:18:25;;;;;;;9.98;5.68;;;23.90;68.50;;;;;;5072898;28;20055;-79
2021/06/15 07:21:09;;;;;;;11.95;6.45;;;24.00;68.10;;;;;;5083349;28;20470;-79
2021/06/15 07:23:53;;;;;;;8.27;5.15;;;24.00;67.90;;;;;;5080080;28;20483;-79
2021/06/15 07:26:37;;;;;;;10.57;5.60;;;24.10;67.60;;;;;;5055078;28;20060;-80
2021/06/15 07:29:21;;;;;;;9.85;5.75;;;24.20;67.30;;;;;;5083659;28;20059;-80
2021/06/15 07:32:06;;;;;;;;;;;24.20;66.70;;;;;;5095822;28;20059;-80
2021/06/15 07:34:50;;;;;;;11.50;5.35;;;24.30;67.10;;;;;;5073053;28;19914;-78
2021/06/15 07:37:34;;;;;;;12.90;5.53;;;24.30;67.20;;;;;;5089400;28;20051;-77
2021/06/15 07:40:25;;;;;;;12.07;5.35;;;24.40;68.30;;;;;;5083317;28;20035;-77
2021/06/15 07:43:10;;;;;;;9.52;5.75;;;24.50;67.40;;;;;;5092480;28;20068;-77
2021/06/15 07:45:54;;;;;;;13.10;5.95;;;24.60;66.50;;;;;;5074859;28;20089;-79
2021/06/15 07:48:38;;;;;;;14.10;5.68;;;24.60;66.90;;;;;;5061275;28;20113;-77
2021/06/15 07:51:23;;;;;;;10.05;5.00;;;24.70;66.70;;;;;;5079383;28;20034;-77
2021/06/15 07:54:07;;;;;;;7.13;4.97;;;24.70;66.50;;;;;;5086288;28;20071;-78
2021/06/15 07:56:51;;;;;;;;;;;24.70;66.60;;;;;;5074011;28;20498;-77
2021/06/15 07:59:36;;;;;;;10.60;5.28;;;24.80;67.10;;;;;;5066692;28;20150;-78
2021/06/15 08:02:20;;;;;;;9.18;5.80;;;24.90;68.00;;;;;;5053968;28;20035;-77
2021/06/15 08:05:04;;;;;;;;;;;25.00;67.20;;;;;;5065523;28;20087;-78
2021/06/15 08:07:50;;;;;;;10.25;5.50;;;25.10;66.60;;;;;;5071259;28;19930;-79
2021/06/15 08:10:34;;;;;;;8.05;4.70;;;25.20;66.80;;;;;;5073074;28;20086;-79
2021/06/15 08:13:18;;;;;;;6.95;5.13;;;25.30;66.90;;;;;;5078111;28;20082;-79
2021/06/15 08:16:02;;;;;;;8.68;5.50;;;25.40;66.80;;;;;;5076141;28;20051;-79
2021/06/15 08:18:46;;;;;;;7.30;5.28;;;25.50;65.20;;;;;;5090471;28;20039;-80
2021/06/15 08:21:31;;;;;;;11.82;5.13;;;25.60;65.00;;;;;;5056897;28;20052;-80
2021/06/15 08:24:16;;;;;;;8.05;5.07;;;25.60;65.70;;;;;;5082513;28;20090;-81
2021/06/15 08:27:00;;;;;;;10.98;5.40;;;25.60;64.90;;;;;;5068743;28;20039;-61
2021/06/15 08:29:44;;;;;;;8.93;5.47;;;25.60;65.20;;;;;;5070968;28;20116;-78
2021/06/15 08:32:28;;;;;;;10.88;5.68;;;25.70;65.30;;;;;;5076236;28;20048;-81
2021/06/15 08:35:12;;;;;;;11.00;5.78;;;25.70;64.60;;;;;;5069546;28;20388;-78
2021/06/15 08:37:57;;;;;;;11.80;5.70;;;25.70;65.10;;;;;;5080148;28;20124;-79
2021/06/15 08:40:41;;;;;;;12.02;5.65;;;25.70;64.50;;;;;;5077289;28;20045;-79
2021/06/15 08:43:25;;;;;;;11.07;5.32;;;25.70;65.00;;;;;;5080885;28;20042;-78
2021/06/15 08:46:10;;;;;;;13.63;5.60;;;25.60;64.60;;;;;;5076139;28;20040;-78
2021/06/15 08:48:56;;;;;;;9.70;5.35;;;25.60;65.10;;;;;;5071382;28;20611;-78
2021/06/15 08:51:41;;;;;;;11.95;5.13;;;25.50;64.70;;;;;;5071388;28;20545;-79
2021/06/15 08:54:26;;;;;;;9.60;5.57;;;25.40;65.10;;;;;;5070405;28;20043;-78
2021/06/15 08:57:10;;;;;;;;;;;25.40;65.60;;;;;;5072975;28;20460;-80
2021/06/15 09:00:00;;;;;;;13.07;6.05;;;25.40;65.80;;;;;;5078913;28;19970;-78
2021/06/15 09:02:25;;;;;;;14.40;6.13;;;25.50;65.50;;;;;;5078990;28;20118;-78
2021/06/15 09:04:51;;;;;;;9.10;5.25;;;25.50;65.40;;;;;;5075796;28;20552;-80
2021/06/15 09:07:17;;;;;;;11.95;5.18;;;25.50;65.80;;;;;;5067973;28;20074;-78
2021/06/15 09:09:44;;;;;;;9.93;5.43;;;25.60;65.90;;;;;;5072512;28;20052;-78
2021/06/15 09:12:12;;;;;;;8.43;5.32;;;25.60;65.90;;;;;;5070360;28;20028;-78
2021/06/15 09:14:52;;;;;;;9.25;5.40;;;25.70;66.90;;;;;;5071941;28;20039;-78
2021/06/15 09:17:27;;;;;;;10.68;4.57;;;25.80;66.70;;;;;;5069732;28;20071;-78
2021/06/15 09:20:29;;;;;;;5.80;4.22;;;25.90;66.20;;;;;;5065872;28;20393;-79
2021/06/15 09:23:15;;;;;;;9.02;4.90;;;26.00;66.40;;;;;;5060390;28;20549;-79
2021/06/15 09:25:59;;;;;;;6.10;4.25;;;26.10;65.50;;;;;;5071639;28;20040;-79
2021/06/15 09:28:50;;;;;;;10.80;4.88;;;26.20;65.60;;;;;;5072414;28;20074;-78
2021/06/15 09:31:51;;;;;;;10.27;4.68;;;26.30;65.20;;;;;;5070296;28;20094;-78
2021/06/15 09:34:36;;;;;;;8.32;4.90;;;26.30;65.00;;;;;;5063980;28;20565;-77
2021/06/15 09:37:40;;;;;;;11.38;5.13;;;26.40;64.30;;;;;;5051836;28;20408;-77
2021/06/15 09:40:31;;;;;;;7.50;4.63;;;26.40;63.80;;;;;;5055216;28;20094;-78
2021/06/15 09:43:15;;;;;;;7.95;4.50;;;26.40;62.70;;;;;;5069184;28;20035;-78
2021/06/15 09:45:59;;;;;;;5.68;4.18;;;26.30;63.60;;;;;;5072040;28;20404;-77
2021/06/15 09:48:43;;;;;;;8.00;4.03;;;26.30;62.90;;;;;;5061222;28;20071;-78
2021/06/15 09:51:12;;;;;;;8.95;4.07;;;26.30;63.30;;;;;;5067160;28;20052;-77
2021/06/15 09:53:44;;;;;;;5.88;4.22;;;26.30;63.80;;;;;;5062514;28;20035;-78
2021/06/15 09:56:12;;;;;;;6.55;3.90;;;26.30;63.20;;;;;;5067923;28;20108;-76
2021/06/15 09:58:43;;;;;;;6.43;4.32;;;26.20;63.20;;;;;;5057915;28;20086;-77
2021/06/15 10:01:21;;;;;;;7.45;4.65;;;26.10;63.50;;;;;;5071752;28;20035;-77
2021/06/15 10:04:06;;;;;;;9.00;4.35;;;26.00;64.00;;;;;;5069581;28;20055;-79
2021/06/15 10:06:35;;;;;;;;;;;25.90;64.30;;;;;;5071120;28;20079;-78
2021/06/15 10:09:02;;;;;;;7.18;4.38;;;25.80;64.30;;;;;;5071309;28;19904;-78
2021/06/15 10:11:28;;;;;;;6.50;4.05;;;25.80;64.80;;;;;;5069825;28;20020;-78
2021/06/15 10:13:53;;;;;;;7.20;4.00;;;25.80;64.80;;;;;;5070775;28;20029;-78
2021/06/15 10:16:19;;;;;;;5.65;4.35;;;25.70;65.00;;;;;;5060676;28;20131;-75
2021/06/15 10:18:45;;;;;;;5.70;4.05;;;25.70;65.20;;;;;;5070770;28;20514;-77
2021/06/15 10:21:11;;;;;;;7.85;4.88;;;25.60;65.90;;;;;;5084943;28;20032;-77
2021/06/15 10:23:36;;;;;;;8.07;4.40;;;25.60;66.80;;;;;;5071507;28;20461;-79
2021/06/15 10:26:02;;;;;;;6.53;4.50;;;25.60;67.40;;;;;;5070686;28;20473;-76
2021/06/15 10:28:30;;;;;;;6.07;4.22;;;25.70;67.30;;;;;;5051694;28;20061;-77
2021/06/15 10:31:03;;;;;;;6.75;5.38;;;25.80;67.40;;;;;;5057866;28;20465;-78
2021/06/15 10:33:45;;;;;;;6.70;4.35;;;25.80;66.50;;;;;;5070819;28;20116;-77
2021/06/15 10:36:12;;;;;;;5.50;4.57;;;25.70;67.50;;;;;;5071057;28;20024;-78
2021/06/15 10:38:44;;;;;;;7.57;4.72;;;25.80;67.80;;;;;;5071423;28;20033;-76
2021/06/15 10:41:20;;;;;;;8.48;4.70;;;25.80;67.60;;;;;;5067393;28;20041;-79
2021/06/15 10:43:48;;;;;;;9.00;4.78;;;25.80;66.70;;;;;;5071270;28;20103;-77
2021/06/15 10:46:14;;;;;;;7.85;5.45;;;25.80;67.20;;;;;;5070153;28;20048;-77
2021/06/15 10:48:55;;;;;;;8.95;5.55;;;25.70;67.20;;;;;;5068092;28;20025;-77
2021/06/15 10:51:31;;;;;;;9.32;5.30;;;25.70;68.00;;;;;;5070199;28;20039;-78
2021/06/15 10:54:02;;;;;;;7.13;5.13;;;25.80;67.60;;;;;;5070487;28;20033;-77
2021/06/15 10:56:32;;;;;;;6.97;5.47;;;25.70;67.40;;;;;;5070466;28;20430;-76
2021/06/15 10:59:03;;;;;;;8.15;4.72;;;25.60;67.40;;;;;;5062150;28;20048;-78
2021/06/15 11:01:31;;;;;;;11.50;5.15;;;25.60;67.90;;;;;;5062580;28;20048;-78
2021/06/15 11:04:02;;;;;;;7.78;4.95;;;25.60;68.30;;;;;;5070151;28;20056;-77
2021/06/15 11:06:27;;;;;;;6.60;4.75;;;25.70;68.70;;;;;;5069880;28;20044;-78
2021/06/15 11:09:15;;;;;;;7.32;5.00;;;25.80;68.50;;;;;;5066901;28;20422;-78
2021/06/15 11:11:44;;;;;;;10.18;5.38;;;25.80;68.20;;;;;;5070954;28;20024;-77
2021/06/15 11:14:12;;;;;;;8.55;5.13;;;25.80;68.20;;;;;;5062834;28;20068;-78
2021/06/15 11:16:41;;;;;;;8.85;4.45;;;25.90;69.20;;;;;;5070004;28;20036;-79
2021/06/15 11:19:17;;;;;;;7.78;5.38;;;25.90;68.40;;;;;;5067379;28;20052;-79
2021/06/15 11:22:17;;;;;;;7.28;4.82;;;26.00;68.50;;;;;;5068091;28;20092;-79
2021/06/15 11:24:55;;;;;;;10.63;5.78;;;26.00;68.00;;;;;;5064298;28;20078;-78
2021/06/15 11:27:23;;;;;;;9.07;6.13;;;26.00;67.10;;;;;;5060811;28;20565;-77
2021/06/15 11:29:51;;;;;;;6.75;4.47;;;25.90;66.90;;;;;;5065367;28;20028;-77
2021/06/15 11:32:19;;;;;;;7.68;5.53;;;25.80;67.40;;;;;;5077522;28;20028;-77
2021/06/15 11:35:01;;;;;;;8.05;5.25;;;25.70;67.40;;;;;;5069641;28;20025;-77
2021/06/15 11:37:32;;;;;;;11.50;5.65;;;25.60;68.00;;;;;;5068186;28;20033;-79
2021/06/15 11:40:22;;;;;;;8.13;5.57;;;25.60;67.90;;;;;;5068096;28;20025;-78
2021/06/15 11:42:56;;;;;;;8.60;5.85;;;25.60;67.90;;;;;;5079140;28;20031;-78
2021/06/15 11:45:29;;;;;;;10.07;5.88;;;25.60;68.30;;;;;;5076553;28;20060;-77
2021/06/15 11:48:15;;;;;;;10.25;5.68;;;25.60;68.30;;;;;;5077029;28;20445;-77
2021/06/15 11:50:45;;;;;;;7.88;5.50;;;25.60;69.20;;;;;;5077896;28;20020;-77
2021/06/15 11:53:19;;;;;;;8.35;4.90;;;25.60;69.10;;;;;;5086926;28;20031;-77
2021/06/15 11:56:12;;;;;;;8.70;5.05;;;25.70;69.20;;;;;;5093331;28;20052;-77
2021/06/15 11:58:55;;;;;;;8.98;5.50;;;25.70;69.40;;;;;;5070342;28;20163;-76
2021/06/15 12:01:22;;;;;;;8.55;5.38;;;25.70;69.30;;;;;;5067520;28;20562;-78
2021/06/15 12:04:08;;;;;;;11.30;5.82;;;25.70;69.50;;;;;;5043055;28;20452;-76
2021/06/15 12:07:16;;;;;;;10.32;6.00;;;25.60;69.40;;;;;;5059628;28;20052;-77
2021/06/15 12:10:05;;;;;;;9.82;5.30;;;25.60;69.70;;;;;;5074829;28;20035;-76
2021/06/15 12:13:08;;;;;;;7.35;5.43;;;25.60;70.20;;;;;;5074236;28;20060;-77
2021/06/15 12:15:46;;;;;;;8.70;5.40;;;25.70;69.60;;;;;;5076911;28;20024;-78
2021/06/15 12:18:23;;;;;;;7.50;5.63;;;25.70;69.40;;;;;;5064780;28;20108;-77
2021/06/15 12:21:18;;;;;;;9.25;5.43;;;25.70;69.20;;;;;;5065196;28;20085;-76
2021/06/15 12:24:07;;;;;;;6.70;5.03;;;25.70;69.50;;;;;;5068683;28;20052;-77
2021/06/15 12:26:56;;;;;;;10.00;5.72;;;25.80;69.40;;;;;;5073059;28;20110;-71
2021/06/15 12:29:22;;;;;;;10.55;5.30;;;25.80;69.50;;;;;;5074924;28;20123;-73
2021/06/15 12:32:06;;;;;;;11.57;6.55;;;25.90;68.90;;;;;;5070174;28;20302;-71
2021/06/15 12:34:50;;;;;;;12.10;5.55;;;26.00;68.00;;;;;;5065782;28;20083;-73
2021/06/15 12:37:41;;;;;;;7.32;4.88;;;26.00;68.90;;;;;;5073696;28;20541;-72
2021/06/15 12:40:25;;;;;;;8.55;5.68;;;26.00;67.80;;;;;;5066068;28;20043;-72
2021/06/15 12:43:10;;;;;;;12.48;5.70;;;26.00;68.10;;;;;;5065602;28;20496;-72
2021/06/15 12:46:06;;;;;;;10.30;5.53;;;26.00;67.80;;;;;;5064131;28;20048;-72
2021/06/15 12:48:32;;;;;;;10.00;5.03;;;26.10;67.70;;;;;;5075628;28;20035;-71
2021/06/15 12:51:07;;;;;;;7.68;5.55;;;26.20;67.40;;;;;;5074478;28;20028;-73
2021/06/15 12:53:35;;;;;;;9.13;5.07;;;26.20;67.20;;;;;;5068004;28;20064;-72
2021/06/15 12:56:16;;;;;;;8.40;5.15;;;26.20;66.40;;;;;;5071132;28;20032;-72
2021/06/15 12:58:44;;;;;;;7.95;5.18;;;26.10;65.50;;;;;;5071031;28;20039;-72
2021/06/15 13:01:35;;;;;;;9.07;5.15;;;26.00;66.30;;;;;;5072635;28;20044;-72
2021/06/15 13:04:25;;;;;;;9.15;5.10;;;26.00;66.00;;;;;;5084162;28;20151;-72
2021/06/15 13:07:11;;;;;;;10.15;5.40;;;26.00;65.80;;;;;;5052140;28;20044;-72
2021/06/15 13:09:56;;;;;;;9.13;5.35;;;26.00;65.40;;;;;;5069983;28;20096;-72
2021/06/15 13:12:49;;;;;;;10.18;5.85;;;26.00;66.30;;;;;;5075342;28;20054;-72
2021/06/15 13:15:33;;;;;;;7.05;4.97;;;26.00;65.40;;;;;;5092310;28;20035;-71
2021/06/15 13:18:27;;;;;;;;;;;26.00;65.90;;;;;;5069087;28;20408;-71
2021/06/15 13:20:58;;;;;;;6.53;4.97;;;26.00;65.20;;;;;;5083682;28;19908;-73
2021/06/15 13:23:24;;;;;;;7.60;4.97;;;25.90;65.30;;;;;;5072620;28;20029;-72
2021/06/15 13:25:50;;;;;;;8.77;4.97;;;25.90;65.60;;;;;;5077388;28;20100;-72
2021/06/15 13:28:34;;;;;;;11.88;5.18;;;25.80;65.50;;;;;;5071711;28;20504;-72
2021/06/15 13:31:23;;;;;;;9.98;5.38;;;25.80;65.10;;;;;;5071365;28;20043;-72
2021/06/15 13:34:11;;;;;;;8.95;5.13;;;25.80;65.50;;;;;;5072159;28;20412;-72
2021/06/15 13:37:06;;;;;;;7.10;5.10;;;25.70;65.50;;;;;;5071078;28;20051;-72
2021/06/15 13:39:51;;;;;;;5.20;4.30;;;25.80;65.40;;;;;;5088507;28;20076;-72
2021/06/15 13:42:36;;;;;;;9.95;5.00;;;25.80;65.50;;;;;;5076316;28;20471;-72
2021/06/15 13:45:25;;;;;;;10.38;5.50;;;25.90;65.70;;;;;;5084032;28;20515;-71
2021/06/15 13:48:12;;;;;;;7.93;4.72;;;25.90;65.80;;;;;;5088214;28;20022;-72
2021/06/15 13:50:57;;;;;;;7.88;4.97;;;26.00;65.40;;;;;;5077797;28;20067;-72
2021/06/15 13:53:41;;;;;;;9.27;4.50;;;26.10;66.30;;;;;;5064067;28;20063;-72
2021/06/15 13:56:25;;;;;;;8.48;4.60;;;26.20;65.50;;;;;;5066654;28;20564;-73
2021/06/15 13:59:09;;;;;;;9.60;4.35;;;26.20;65.40;;;;;;5066647;28;20102;-68
2021/06/15 14:01:54;;;;;;;10.40;5.45;;;26.40;64.80;;;;;;5071026;28;20035;-68
2021/06/15 14:04:38;;;;;;;6.03;4.90;;;26.40;64.80;;;;;;5069680;28;20059;-69
2021/06/15 14:07:22;;;;;;;8.15;5.13;;;26.40;64.50;;;;;;5050918;28;20070;-70
2021/06/15 14:10:08;;;;;;;6.95;4.32;;;26.40;64.40;;;;;;5071120;28;20512;-70
2021/06/15 14:12:54;;;;;;;9.15;4.65;;;26.40;64.40;;;;;;5068825;28;20136;-70